createdAt,value
2024-02-20T00:00:57.629Z,95740.06
2024-02-20T00:03:24.872Z,95740.75
2024-02-20T00:06:04.559Z,95742.50
2024-02-20T00:08:32.132Z,95739.41
2024-02-20T00:11:03.010Z,95736.84
2024-02-20T00:13:50.107Z,95729.91
2024-02-20T00:16:20.711Z,95728.97
2024-02-20T00:18:51.580Z,95728.13
2024-02-20T00:21:39.994Z,95733.25
2024-02-20T00:24:10.742Z,95734.94
2024-02-20T00:26:37.861Z,95731.31
2024-02-20T00:29:04.931Z,95728.56
2024-02-20T00:31:33.753Z,95722.59
2024-02-20T00:34:02.136Z,95720.22
2024-02-20T00:36:29.839Z,95722.03
2024-02-20T00:38:59.162Z,95722.97
2024-02-20T00:41:32.572Z,95725.88
2024-02-20T00:43:59.588Z,95724.31
2024-02-20T00:46:28.331Z,95727.06
2024-02-20T00:48:55.960Z,95724.72
2024-02-20T00:51:27.360Z,95725.66
2024-02-20T00:53:56.604Z,95717.78
2024-02-20T00:56:23.616Z,95717.91
2024-02-20T00:58:52.217Z,95721.63
2024-02-20T01:01:20.050Z,95719.00
2024-02-20T01:03:48.589Z,95713.03
2024-02-20T01:06:16.161Z,95701.84
2024-02-20T01:08:45.085Z,95690.38
2024-02-20T01:11:12.338Z,95684.50
2024-02-20T01:13:39.917Z,95691.94
2024-02-20T01:16:09.164Z,95689.81
2024-02-20T01:18:36.189Z,95697.81
2024-02-20T01:21:03.666Z,95687.78
2024-02-20T01:23:31.258Z,95688.66
2024-02-20T01:26:00.215Z,95688.09
2024-02-20T01:28:27.579Z,95698.00
2024-02-20T01:30:56.540Z,95695.13
2024-02-20T01:33:23.861Z,95707.06
2024-02-20T01:35:51.332Z,95709.19
2024-02-20T01:38:19.005Z,95701.75
2024-02-20T01:40:46.564Z,95704.72
2024-02-20T01:43:15.771Z,95706.13
2024-02-20T01:45:43.887Z,95710.44
2024-02-20T01:48:11.502Z,95699.31
2024-02-20T01:50:39.229Z,95701.44
2024-02-20T01:53:07.674Z,95688.28
2024-02-20T01:55:37.353Z,95691.88
2024-02-20T01:58:04.979Z,95692.00
2024-02-20T02:00:32.514Z,95690.44
2024-02-20T02:03:00.088Z,95693.34
2024-02-20T02:05:27.842Z,95697.03
2024-02-20T02:07:56.286Z,95689.31
2024-02-20T02:10:24.835Z,95693.97
2024-02-20T02:12:52.457Z,95694.22
2024-02-20T02:15:21.396Z,95694.47
2024-02-20T02:17:49.687Z,95689.47
2024-02-20T02:20:18.326Z,95687.78
2024-02-20T02:22:47.601Z,95691.38
2024-02-20T02:25:15.540Z,95687.06
2024-02-20T02:27:44.609Z,95688.28
2024-02-20T02:30:11.704Z,95691.88
2024-02-20T02:32:40.341Z,95692.13
2024-02-20T02:35:09.582Z,95690.47
2024-02-20T02:37:37.534Z,95680.91
2024-02-20T02:40:05.234Z,95683.53
2024-02-20T02:42:33.727Z,95684.13
2024-02-20T02:45:02.340Z,95685.78
2024-02-20T02:47:29.899Z,95675.28
2024-02-20T02:49:58.663Z,95681.97
2024-02-20T02:52:27.266Z,95691.63
2024-02-20T02:54:55.781Z,95688.56
2024-02-20T02:57:23.354Z,95687.59
2024-02-20T02:59:51.988Z,95692.84
2024-02-20T03:02:19.525Z,95702.38
2024-02-20T03:04:48.203Z,95694.75
2024-02-20T03:07:17.574Z,95699.91
2024-02-20T03:09:45.405Z,95695.47
2024-02-20T03:12:13.982Z,95688.56
2024-02-20T03:14:42.582Z,95688.78
2024-02-20T03:17:10.213Z,95693.47
2024-02-20T03:19:37.871Z,95700.41
2024-02-20T03:22:06.472Z,95694.19
2024-02-20T03:24:35.367Z,95689.88
2024-02-20T03:27:03.631Z,95690.56
2024-02-20T03:29:32.244Z,95684.25
2024-02-20T03:31:59.830Z,95692.97
2024-02-20T03:34:29.123Z,95693.66
2024-02-20T03:36:57.079Z,95700.72
2024-02-20T03:39:26.332Z,95699.53
2024-02-20T03:41:54.306Z,95693.88
2024-02-20T03:44:21.874Z,95700.53
2024-02-20T03:46:50.586Z,95696.84
2024-02-20T03:49:19.401Z,95701.84
2024-02-20T03:51:47.705Z,95707.69
2024-02-20T03:54:16.329Z,95716.88
2024-02-20T03:56:45.220Z,95710.78
2024-02-20T03:59:12.516Z,95719.34
2024-02-20T04:01:41.760Z,95719.22
2024-02-20T04:04:08.864Z,95725.09
2024-02-20T04:06:36.283Z,95726.63
2024-02-20T04:09:05.271Z,95732.59
2024-02-20T04:11:34.147Z,95727.44
2024-02-20T04:14:02.047Z,95723.75
2024-02-20T04:16:30.826Z,95727.78
2024-02-20T04:18:58.576Z,95733.03
2024-02-20T04:21:27.039Z,95735.84
2024-02-20T04:23:55.620Z,95733.09
2024-02-20T04:26:23.225Z,95741.84
2024-02-20T04:28:50.833Z,95738.75
2024-02-20T04:31:18.442Z,95741.16
2024-02-20T04:33:47.040Z,95746.81
2024-02-20T04:36:15.607Z,95741.66
2024-02-20T04:38:44.718Z,95745.84
2024-02-20T04:41:12.824Z,95754.56
2024-02-20T04:43:41.470Z,95758.28
2024-02-20T04:46:10.445Z,95767.44
2024-02-20T04:48:38.660Z,95759.31
2024-02-20T04:51:13.368Z,95765.28
2024-02-20T04:53:42.404Z,95771.25
2024-02-20T04:56:10.466Z,95772.09
2024-02-20T04:58:38.174Z,95768.63
2024-02-20T05:01:07.589Z,95769.47
2024-02-20T05:03:35.474Z,95768.63
2024-02-20T05:06:03.122Z,95767.78
2024-02-20T05:08:31.762Z,95769.97
2024-02-20T05:10:59.397Z,95769.78
2024-02-20T05:13:27.948Z,95765.59
2024-02-20T05:15:56.517Z,95775.63
2024-02-20T05:18:24.120Z,95783.19
2024-02-20T05:20:53.005Z,95787.38
2024-02-20T05:23:21.314Z,95784.25
2024-02-20T05:25:50.516Z,95779.56
2024-02-20T05:28:17.557Z,95788.28
2024-02-20T05:30:45.075Z,95787.06
2024-02-20T05:33:12.798Z,95787.41
2024-02-20T05:35:41.329Z,95785.34
2024-02-20T05:38:08.913Z,95789.91
2024-02-20T05:40:35.543Z,95790.75
2024-02-20T05:43:04.193Z,95788.13
2024-02-20T05:45:31.679Z,95792.78
2024-02-20T05:47:59.499Z,95786.84
2024-02-20T05:50:28.438Z,95786.69
2024-02-20T05:52:55.533Z,95794.34
2024-02-20T05:55:24.425Z,95797.91
2024-02-20T05:57:51.806Z,95794.22
2024-02-20T06:00:19.428Z,95793.16
2024-02-20T06:02:46.993Z,95796.75
2024-02-20T06:05:15.963Z,95807.75
2024-02-20T06:07:43.322Z,95801.19
2024-02-20T06:10:11.871Z,95803.81
2024-02-20T06:12:40.926Z,95803.59
2024-02-20T06:15:08.113Z,95792.94
2024-02-20T06:17:37.092Z,95807.75
2024-02-20T06:20:04.508Z,95809.56
2024-02-20T06:22:33.271Z,95807.31
2024-02-20T06:25:00.580Z,95812.91
2024-02-20T06:27:28.219Z,95811.69
2024-02-20T06:29:55.815Z,95814.78
2024-02-20T06:32:23.343Z,95824.34
2024-02-20T06:34:50.582Z,95826.75
2024-02-20T06:37:18.595Z,95820.16
2024-02-20T06:39:47.539Z,95822.41
2024-02-20T06:42:14.715Z,95821.31
2024-02-20T06:44:42.323Z,95822.03
2024-02-20T06:47:09.891Z,95822.75
2024-02-20T06:49:38.690Z,95814.59
2024-02-20T06:52:07.243Z,95819.38
2024-02-20T06:54:35.826Z,95819.38
2024-02-20T06:57:03.408Z,95831.28
2024-02-20T06:59:30.073Z,95829.38
2024-02-20T07:01:58.773Z,95838.00
2024-02-20T07:04:26.412Z,95834.38
2024-02-20T07:06:53.941Z,95846.69
2024-02-20T07:09:25.424Z,95843.09
2024-02-20T07:11:53.096Z,95842.59
2024-02-20T07:14:20.652Z,95841.28
2024-02-20T07:16:48.311Z,95844.50
2024-02-20T07:19:15.936Z,95842.00
2024-02-20T07:21:43.542Z,95849.38
2024-02-20T07:24:11.091Z,95839.31
2024-02-20T07:26:37.702Z,95831.59
2024-02-20T07:29:06.813Z,95833.72
2024-02-20T07:31:36.408Z,95835.72
2024-02-20T07:34:09.978Z,95826.25
2024-02-20T07:36:38.145Z,95827.25
2024-02-20T07:39:07.093Z,95825.78
2024-02-20T07:41:35.372Z,95833.41
2024-02-20T07:44:02.966Z,95834.78
2024-02-20T07:46:31.575Z,95835.63
2024-02-20T07:49:00.275Z,95829.53
2024-02-20T07:51:27.722Z,95828.72
2024-02-20T07:53:55.323Z,95830.38
2024-02-20T07:56:23.905Z,95822.78
2024-02-20T07:58:51.560Z,95827.53
2024-02-20T08:01:22.398Z,95822.63
2024-02-20T08:03:49.733Z,95816.41
2024-02-20T08:06:17.305Z,95817.03
2024-02-20T08:08:45.901Z,95821.78
2024-02-20T08:11:13.609Z,95822.88
2024-02-20T08:13:42.153Z,95826.34
2024-02-20T08:16:09.741Z,95824.31
2024-02-20T08:18:37.377Z,95820.72
2024-02-20T08:21:04.891Z,95820.72
2024-02-20T08:23:32.494Z,95825.41
2024-02-20T08:26:00.066Z,95829.53
2024-02-20T08:28:29.077Z,95829.81
2024-02-20T08:30:56.330Z,95838.66
2024-02-20T08:33:23.918Z,95835.31
2024-02-20T08:35:51.467Z,95848.66
2024-02-20T08:38:20.082Z,95848.66
2024-02-20T08:40:47.649Z,95856.81
2024-02-20T08:43:16.281Z,95834.22
2024-02-20T08:45:43.830Z,95847.50
2024-02-20T08:48:10.652Z,95843.59
2024-02-20T08:50:38.143Z,95846.34
2024-02-20T08:55:45.432Z,95845.22
2024-02-20T08:58:12.981Z,95846.31
2024-02-20T09:00:41.679Z,95855.94
2024-02-20T09:03:09.129Z,95845.44
2024-02-20T09:05:36.962Z,95853.25
2024-02-20T09:08:06.387Z,95851.06
2024-02-20T09:10:35.009Z,95857.03
2024-02-20T09:13:03.586Z,95853.19
2024-02-20T09:15:32.143Z,95858.78
2024-02-20T09:18:00.794Z,95861.84
2024-02-20T09:20:29.489Z,95865.09
2024-02-20T09:22:58.490Z,95863.16
2024-02-20T09:25:26.538Z,95869.84
2024-02-20T09:27:55.741Z,95869.56
2024-02-20T09:30:23.695Z,95871.78
2024-02-20T09:32:53.067Z,95875.97
2024-02-20T09:35:22.797Z,95877.22
2024-02-20T09:37:50.527Z,95876.63
2024-02-20T09:40:22.389Z,95873.31
2024-02-20T09:42:50.766Z,95868.28
2024-02-20T09:45:19.999Z,95869.34
2024-02-20T09:50:30.951Z,95864.50
2024-02-20T09:53:00.217Z,95865.47
2024-02-20T09:55:28.948Z,95869.16
2024-02-20T09:57:56.704Z,95863.34
2024-02-20T10:00:23.577Z,95872.22
2024-02-20T10:02:50.490Z,95868.41
2024-02-20T10:05:19.972Z,95866.19
2024-02-20T10:07:47.788Z,95864.75
2024-02-20T10:10:15.346Z,95868.47
2024-02-20T10:12:42.948Z,95873.22
2024-02-20T10:15:11.473Z,95873.22
2024-02-20T10:17:40.439Z,95858.72
2024-02-20T10:20:08.792Z,95864.25
2024-02-20T10:22:36.336Z,95864.47
2024-02-20T10:25:05.056Z,95863.28
2024-02-20T10:27:32.447Z,95864.38
2024-02-20T10:30:00.044Z,95873.72
2024-02-20T10:32:27.668Z,95868.97
2024-02-20T10:34:55.303Z,95864.88
2024-02-20T10:37:22.448Z,95870.69
2024-02-20T10:39:48.939Z,95864.66
2024-02-20T10:42:15.437Z,95872.81
2024-02-20T10:44:41.945Z,95859.41
2024-02-20T10:47:09.197Z,95858.97
2024-02-20T10:49:36.757Z,95865.38
2024-02-20T10:52:03.786Z,95862.81
2024-02-20T10:54:39.113Z,95864.44
2024-02-20T10:57:12.565Z,95858.75
2024-02-20T10:59:39.078Z,95861.34
2024-02-20T11:02:05.793Z,95852.63
2024-02-20T11:04:33.377Z,95857.31
2024-02-20T11:07:01.010Z,95860.38
2024-02-20T11:09:28.520Z,95853.25
2024-02-20T11:11:56.102Z,95854.09
2024-02-20T11:14:22.612Z,95863.38
2024-02-20T11:16:51.674Z,95867.53
2024-02-20T11:19:19.053Z,95862.41
2024-02-20T11:21:47.499Z,95852.28
2024-02-20T11:24:17.807Z,95852.63
2024-02-20T11:26:45.695Z,95852.84
2024-02-20T11:29:12.283Z,95847.09
2024-02-20T11:31:38.848Z,95853.34
2024-02-20T11:34:07.659Z,95852.13
2024-02-20T11:36:35.076Z,95851.59
2024-02-20T11:39:03.669Z,95851.38
2024-02-20T11:41:31.255Z,95841.53
2024-02-20T11:43:58.843Z,95840.53
2024-02-20T11:46:27.487Z,95838.03
2024-02-20T11:48:55.114Z,95837.88
2024-02-20T11:51:21.877Z,95829.81
2024-02-20T11:53:49.295Z,95832.81
2024-02-20T11:56:16.969Z,95834.00
2024-02-20T11:58:44.549Z,95832.03
2024-02-20T12:01:12.070Z,95825.97
2024-02-20T12:03:39.600Z,95826.06
2024-02-20T12:06:07.005Z,95818.09
2024-02-20T12:08:34.020Z,95821.59
2024-02-20T12:11:01.527Z,95819.47
2024-02-20T12:13:28.986Z,95815.47
2024-02-20T12:15:55.532Z,95816.81
2024-02-20T12:18:23.215Z,95813.13
2024-02-20T12:20:52.357Z,95811.81
2024-02-20T12:23:20.351Z,95810.16
2024-02-20T12:25:48.093Z,95810.16
2024-02-20T12:28:16.529Z,95806.81
2024-02-20T12:30:44.119Z,95790.50
2024-02-20T12:33:11.791Z,95792.53
2024-02-20T12:35:40.350Z,95792.34
2024-02-20T12:38:07.918Z,95797.47
2024-02-20T12:40:34.803Z,95805.06
2024-02-20T12:43:02.671Z,95802.00
2024-02-20T12:45:29.217Z,95803.97
2024-02-20T12:47:57.318Z,95806.75
2024-02-20T12:50:24.885Z,95801.59
2024-02-20T12:52:52.474Z,95809.06
2024-02-20T12:55:20.087Z,95804.41
2024-02-20T12:57:47.662Z,95808.88
2024-02-20T13:00:15.238Z,95806.22
2024-02-20T13:02:41.904Z,95808.06
2024-02-20T13:05:09.566Z,95813.34
2024-02-20T13:07:37.082Z,95807.69
2024-02-20T13:10:04.669Z,95807.69
2024-02-20T13:12:32.204Z,95804.59
2024-02-20T13:14:59.200Z,95802.78
2024-02-20T13:17:26.494Z,95805.47
2024-02-20T13:19:54.048Z,95799.34
2024-02-20T13:22:21.576Z,95796.63
2024-02-20T13:24:48.165Z,95793.47
2024-02-20T13:27:15.785Z,95796.97
2024-02-20T13:29:42.296Z,95798.13
2024-02-20T13:32:10.973Z,95797.63
2024-02-20T13:34:39.651Z,95798.56
2024-02-20T13:37:07.142Z,95798.38
2024-02-20T13:39:34.742Z,95800.63
2024-02-20T13:42:01.670Z,95796.97
2024-02-20T13:44:28.912Z,95800.63
2024-02-20T13:47:03.334Z,95787.03
2024-02-20T13:49:34.198Z,95788.53
2024-02-20T13:52:02.913Z,95772.81
2024-02-20T13:54:30.354Z,95774.97
2024-02-20T13:56:58.971Z,95776.13
2024-02-20T13:59:26.512Z,95775.75
2024-02-20T14:01:53.046Z,95776.69
2024-02-20T14:04:19.663Z,95764.75
2024-02-20T14:06:46.311Z,95765.19
2024-02-20T14:09:12.966Z,95760.44
2024-02-20T14:11:39.546Z,95768.09
2024-02-20T14:14:06.066Z,95761.41
2024-02-20T14:16:32.635Z,95762.25
2024-02-20T14:19:00.284Z,95761.75
2024-02-20T14:21:27.846Z,95760.91
2024-02-20T14:23:55.460Z,95760.56
2024-02-20T14:26:25.681Z,95758.91
2024-02-20T14:28:52.594Z,95768.53
2024-02-20T14:31:19.346Z,95753.44
2024-02-20T14:33:46.041Z,95755.41
2024-02-20T14:36:13.402Z,95743.31
2024-02-20T14:38:40.328Z,95745.97
2024-02-20T14:41:07.551Z,95741.31
2024-02-20T14:43:35.193Z,95742.13
2024-02-20T14:46:02.826Z,95740.81
2024-02-20T14:48:30.381Z,95744.66
2024-02-20T14:50:57.916Z,95742.34
2024-02-20T14:53:25.520Z,95743.47
2024-02-20T14:55:52.094Z,95742.78
2024-02-20T14:58:18.749Z,95738.13
2024-02-20T15:00:46.310Z,95749.06
2024-02-20T15:03:13.890Z,95745.34
2024-02-20T15:05:40.630Z,95752.03
2024-02-20T15:08:08.112Z,95751.31
2024-02-20T15:10:34.718Z,95756.63
2024-02-20T15:13:01.244Z,95743.31
2024-02-20T15:15:27.852Z,95753.19
2024-02-20T15:17:54.455Z,95752.50
2024-02-20T15:20:22.076Z,95753.16
2024-02-20T15:22:49.722Z,95752.06
2024-02-20T15:25:17.967Z,95755.00
2024-02-20T15:27:45.827Z,95743.19
2024-02-20T15:30:13.417Z,95742.19
2024-02-20T15:32:41.191Z,95741.78
2024-02-20T15:35:09.046Z,95733.31
2024-02-20T15:37:35.746Z,95731.28
2024-02-20T15:40:02.829Z,95731.22
2024-02-20T15:42:29.763Z,95731.84
2024-02-20T15:44:56.999Z,95726.09
2024-02-20T15:47:24.618Z,95724.88
2024-02-20T15:49:52.255Z,95727.28
2024-02-20T15:52:18.827Z,95724.25
2024-02-20T15:54:45.376Z,95718.72
2024-02-20T15:57:11.901Z,95721.44
2024-02-20T15:59:38.553Z,95717.34
2024-02-20T16:02:05.223Z,95706.44
2024-02-20T16:04:32.810Z,95706.94
2024-02-20T16:07:00.383Z,95704.78
2024-02-20T16:09:27.974Z,95703.28
2024-02-20T16:11:54.772Z,95696.75
2024-02-20T16:14:21.272Z,95693.88
2024-02-20T16:16:47.793Z,95691.66
2024-02-20T16:19:15.432Z,95689.75
2024-02-20T16:21:42.884Z,95697.56
2024-02-20T16:24:09.383Z,95707.72
2024-02-20T16:26:37.613Z,95700.50
2024-02-20T16:36:59.576Z,95703.59
2024-02-20T16:39:47.340Z,95702.38
2024-02-20T16:42:15.966Z,95708.19
2024-02-20T16:44:43.815Z,95730.16
2024-02-20T16:47:12.481Z,95728.22
2024-02-20T16:49:40.230Z,95722.34
2024-02-20T16:52:07.717Z,95726.16
2024-02-20T16:54:35.217Z,95718.41
2024-02-20T16:57:03.824Z,95709.34
2024-02-20T16:59:37.266Z,95709.84
2024-02-20T17:02:11.163Z,95707.31
2024-02-20T17:04:39.827Z,95709.78
2024-02-20T17:07:09.200Z,95707.25
2024-02-20T17:09:37.895Z,95705.03
2024-02-20T17:12:07.216Z,95717.97
2024-02-20T17:14:42.137Z,95723.31
2024-02-20T17:17:10.936Z,95727.06
2024-02-20T17:19:40.413Z,95727.34
2024-02-20T17:22:09.404Z,95719.56
2024-02-20T17:24:38.478Z,95714.59
2024-02-20T17:27:30.388Z,95709.84
2024-02-20T17:30:03.485Z,95703.19
2024-02-20T17:32:30.590Z,95700.28
2024-02-20T17:34:59.193Z,95694.78
2024-02-20T17:37:28.293Z,95690.31
2024-02-20T17:40:06.279Z,95692.78
2024-02-20T17:42:55.953Z,95703.09
2024-02-20T17:45:26.544Z,95700.66
2024-02-20T17:47:56.261Z,95703.56
2024-02-20T17:50:24.872Z,95709.56
2024-02-20T17:53:06.589Z,95713.38
2024-02-20T17:55:35.145Z,95722.59
2024-02-20T17:58:07.169Z,95722.84
2024-02-20T18:00:44.369Z,95726.06
2024-02-20T18:05:53.631Z,95720.28
2024-02-20T18:08:22.151Z,95718.13
2024-02-20T18:10:51.008Z,95718.72
2024-02-20T18:13:19.380Z,95716.72
2024-02-20T18:15:48.275Z,95718.88
2024-02-20T18:18:15.613Z,95714.81
2024-02-20T18:20:43.128Z,95715.16
2024-02-20T18:23:10.710Z,95719.09
2024-02-20T18:25:45.226Z,95721.81
2024-02-20T18:28:12.137Z,95717.66
2024-02-20T18:30:40.510Z,95723.97
2024-02-20T18:33:09.325Z,95723.97
2024-02-20T18:35:37.949Z,95723.13
2024-02-20T18:38:06.525Z,95720.75
2024-02-20T18:40:35.085Z,95726.22
2024-02-20T18:43:02.605Z,95724.69
2024-02-20T18:45:30.483Z,95722.16
2024-02-20T18:47:58.001Z,95716.81
2024-02-20T18:50:26.920Z,95714.19
2024-02-20T18:52:55.197Z,95708.00
2024-02-20T18:55:29.687Z,95705.13
2024-02-20T18:57:58.577Z,95692.72
2024-02-20T19:00:26.878Z,95692.03
2024-02-20T19:02:54.542Z,95686.41
2024-02-20T19:05:23.706Z,95687.97
2024-02-20T19:07:51.651Z,95697.88
2024-02-20T19:10:19.347Z,95697.41
2024-02-20T19:12:47.808Z,95700.34
2024-02-20T19:15:16.847Z,95685.44
2024-02-20T19:17:45.078Z,95687.50
2024-02-20T19:20:12.694Z,95687.22
2024-02-20T19:22:41.955Z,95691.41
2024-02-20T19:25:09.881Z,95692.81
2024-02-20T19:27:39.344Z,95693.56
2024-02-20T19:30:06.004Z,95692.81
2024-02-20T19:32:33.608Z,95701.31
2024-02-20T19:35:01.258Z,95707.03
2024-02-20T19:37:30.583Z,95701.06
2024-02-20T19:39:58.357Z,95708.84
2024-02-20T19:42:26.155Z,95697.63
2024-02-20T19:44:54.592Z,95692.72
2024-02-20T19:47:22.188Z,95688.56
2024-02-20T19:49:51.260Z,95694.06
2024-02-20T19:52:18.515Z,95705.75
2024-02-20T19:54:46.057Z,95704.56
2024-02-20T19:57:15.065Z,95701.47
2024-02-20T19:59:43.210Z,95702.53
2024-02-20T20:02:12.135Z,95708.03
2024-02-20T20:04:40.478Z,95707.28
2024-02-20T20:07:09.362Z,95711.47
2024-02-20T20:12:21.214Z,95695.00
2024-02-20T20:14:49.979Z,95691.56
2024-02-20T20:17:17.504Z,95701.31
2024-02-20T20:19:45.124Z,95704.31
2024-02-20T20:22:14.035Z,95695.38
2024-02-20T20:24:41.273Z,95691.09
2024-02-20T20:27:08.813Z,95687.84
2024-02-20T20:29:37.440Z,95688.78
2024-02-20T20:32:04.989Z,95689.75
2024-02-20T20:34:33.954Z,95689.63
2024-02-20T20:37:03.104Z,95686.16
2024-02-20T20:39:30.820Z,95679.75
2024-02-20T20:41:58.385Z,95681.91
2024-02-20T20:44:27.490Z,95682.38
2024-02-20T20:46:54.740Z,95690.03
2024-02-20T20:49:23.906Z,95678.31
2024-02-20T20:51:52.784Z,95688.56
2024-02-20T20:54:20.382Z,95684.16
2024-02-20T20:56:55.684Z,95687.97
2024-02-20T20:59:29.187Z,95679.25
2024-02-20T21:01:56.304Z,95673.28
2024-02-20T21:04:27.471Z,95678.06
2024-02-20T21:06:57.452Z,95674.59
2024-02-20T21:12:12.381Z,95683.44
2024-02-20T21:17:27.980Z,95684.50
2024-02-20T21:19:38.833Z,95691.31
2024-02-20T21:20:12.784Z,95686.06
2024-02-20T21:22:44.544Z,95690.31
2024-02-20T21:25:12.868Z,95693.31
2024-02-20T21:27:43.745Z,95693.66
2024-02-20T21:30:22.484Z,95704.72
2024-02-20T21:35:16.919Z,95696.00
2024-02-20T21:35:55.724Z,95696.97
2024-02-20T21:43:48.392Z,95684.66
2024-02-20T22:03:07.872Z,95694.13
2024-02-20T22:19:25.011Z,95683.53
2024-02-20T22:22:04.507Z,95682.44
2024-02-20T22:24:31.238Z,95669.47
2024-02-20T22:26:58.860Z,95657.31
2024-02-20T22:29:27.774Z,95652.66
2024-02-20T22:31:56.432Z,95662.78
2024-02-20T22:34:46.272Z,95660.78
2024-02-20T22:37:14.324Z,95670.78
2024-02-20T22:40:28.692Z,95663.97
2024-02-20T22:42:31.625Z,95663.22
2024-02-20T22:44:59.252Z,95653.22
2024-02-20T22:47:57.296Z,95654.19
2024-02-20T22:50:38.643Z,95656.47
2024-02-20T22:53:07.921Z,95650.75
2024-02-20T22:56:06.229Z,95652.19
2024-02-20T22:58:36.901Z,95645.53
2024-02-20T23:03:45.851Z,95651.13
2024-02-20T23:07:00.939Z,95640.88
2024-02-20T23:09:04.223Z,95642.19
2024-02-20T23:11:35.636Z,95656.59
2024-02-20T23:14:04.410Z,95658.47
2024-02-20T23:16:33.783Z,95665.66
2024-02-20T23:19:06.353Z,95658.63
2024-02-20T23:21:36.875Z,95651.91
2024-02-20T23:27:04.492Z,95651.69
2024-02-20T23:30:18.506Z,95645.72
2024-02-20T23:32:25.149Z,95639.41
2024-02-20T23:34:54.941Z,95638.22
2024-02-20T23:37:26.164Z,95631.09
2024-02-20T23:40:05.571Z,95623.22
2024-02-20T23:45:26.569Z,95622.88
2024-02-20T23:47:57.563Z,95621.19
2024-02-20T23:56:58.840Z,95613.41
2024-02-20T23:59:56.565Z,95619.38
